Time;durP1;ratioP1;P1;durP2;ratioP2;P2;SDS_P1;SDS_P2;PMS_P1;PMS_P2;Temp;Humidity;BMP_temperature;BMP_pressure;BME280_temperature;BME280_humidity;BME280_pressure;Samples;Min_cycle;Max_cycle;Signal;HPM_P1;HPM_P2
2021/03/16 00:01:59;;;;;;;57.62;36.13;;;;;;;1.48;75.22;99687.22;1698064;81;25815;-74
2021/03/16 00:04:26;;;;;;;56.70;34.03;;;;;;;1.48;75.22;99687.22;1649975;84;25486;-73
2021/03/16 00:07:07;;;;;;;;;;;;;;;1.44;75.32;99686.29;1636511;84;25901;-73
2021/03/16 00:09:34;;;;;;;59.53;38.58;;;;;;;1.45;75.39;99686.18;1637039;85;25487;-73
2021/03/16 00:12:00;;;;;;;64.22;38.02;;;;;;;1.38;75.23;99688.08;1650989;84;26391;-74
2021/03/16 00:14:26;;;;;;;68.57;40.05;;;;;;;1.27;75.39;99688.93;1648372;84;25383;-74
2021/03/16 00:16:53;;;;;;;57.13;37.80;;;;;;;1.28;75.84;99686.25;1649059;83;25801;-73
2021/03/16 00:19:20;;;;;;;64.15;38.83;;;;;;;1.36;75.90;99686.89;1646829;84;25716;-74
2021/03/16 00:21:47;;;;;;;65.35;39.92;;;;;;;1.42;75.99;99686.88;1651590;84;26300;-73
2021/03/16 00:24:13;;;;;;;58.90;36.17;;;;;;;1.41;75.90;99680.91;1650732;83;25772;-73
2021/03/16 00:26:40;;;;;;;58.23;34.95;;;;;;;1.40;75.91;99681.05;1647884;84;25907;-74
2021/03/16 00:29:06;;;;;;;54.35;36.98;;;;;;;1.42;76.06;99685.14;1636365;86;25920;-74
2021/03/16 00:31:32;;;;;;;59.15;34.10;;;;;;;1.44;76.18;99687.09;1669787;83;25899;-74
2021/03/16 00:33:59;;;;;;;59.70;35.40;;;;;;;1.41;76.05;99692.50;1654790;83;25777;-74
2021/03/16 00:36:25;;;;;;;56.73;34.80;;;;;;;1.33;75.96;99694.87;1648185;84;25620;-74
2021/03/16 00:38:52;;;;;;;62.93;36.58;;;;;;;1.26;76.05;99693.73;1654660;84;25919;-74
2021/03/16 00:41:18;;;;;;;59.67;36.38;;;;;;;1.21;76.29;99693.28;1679984;82;25904;-74
2021/03/16 00:43:48;;;;;;;74.25;45.03;;;;;;;1.04;76.42;99683.04;1686200;82;25803;-74
2021/03/16 00:46:15;;;;;;;64.55;38.95;;;;;;;1.11;76.95;99704.28;1670231;83;25793;-74
2021/03/16 00:48:41;;;;;;;80.38;47.03;;;;;;;1.14;77.26;99715.28;1668315;83;25868;-74
2021/03/16 00:51:07;;;;;;;86.05;51.53;;;;;;;1.03;77.41;99715.64;1660619;82;26497;-74
2021/03/16 00:53:34;;;;;;;92.92;53.08;;;;;;;1.01;77.75;99711.55;1676242;82;25969;-74
2021/03/16 00:56:03;;;;;;;83.65;52.80;;;;;;;1.04;77.97;99711.34;1678410;83;25926;-74
2021/03/16 00:58:31;;;;;;;90.35;50.92;;;;;;;1.09;78.16;99711.33;1672072;83;25345;-74
2021/03/16 01:00:58;;;;;;;88.03;54.50;;;;;;;1.09;78.20;99714.34;1657898;84;25797;-74
2021/03/16 01:03:25;;;;;;;87.75;55.55;;;;;;;1.07;78.36;99703.37;1683452;83;26667;-74
2021/03/16 01:05:53;;;;;;;92.88;55.65;;;;;;;1.11;78.55;99706.05;1675117;82;26126;-73
2021/03/16 01:08:20;;;;;;;94.00;57.43;;;;;;;1.16;78.69;99705.22;1694867;81;26606;-73
2021/03/16 01:10:49;;;;;;;96.47;58.58;;;;;;;1.18;78.80;99707.69;1687995;81;25966;-73
2021/03/16 01:13:17;;;;;;;86.22;52.40;;;;;;;1.23;78.94;99703.81;1686780;81;25977;-74
2021/03/16 01:15:43;;;;;;;95.35;54.60;;;;;;;1.32;78.68;99700.97;1691260;82;25862;-74
2021/03/16 01:18:10;;;;;;;89.83;51.92;;;;;;;1.32;78.68;99700.97;1685017;82;25972;-73
2021/03/16 01:20:37;;;;;;;92.40;52.10;;;;;;;1.39;78.88;99703.41;1710471;81;26476;-74
2021/03/16 01:23:04;;;;;;;84.58;51.37;;;;;;;1.46;78.77;99701.96;1667070;81;25349;-72
2021/03/16 01:25:31;;;;;;;88.50;54.23;;;;;;;1.48;78.64;99696.23;1717032;81;27033;-72
2021/03/16 01:27:57;;;;;;;87.22;55.33;;;;;;;1.50;78.56;99694.36;1709092;81;25792;-72
2021/03/16 01:30:25;;;;;;;89.32;57.05;;;;;;;1.51;78.42;99703.70;1695543;81;26707;-72
2021/03/16 01:32:52;;;;;;;93.87;56.83;;;;;;;1.47;78.19;99702.33;1681229;82;26036;-67
2021/03/16 01:35:19;;;;;;;90.07;54.53;;;;;;;1.57;78.23;99699.00;1679678;82;25664;-67
2021/03/16 01:37:48;;;;;;;81.60;51.83;;;;;;;1.51;77.91;99699.03;1697204;82;25828;-67
2021/03/16 01:40:19;;;;;;;93.82;54.25;;;;;;;1.51;77.91;99699.03;1688216;81;25801;-67
2021/03/16 01:42:45;;;;;;;86.10;54.13;;;;;;;1.43;77.81;99706.08;1713802;81;26377;-66
2021/03/16 01:45:15;;;;;;;84.22;49.95;;;;;;;1.47;78.00;99698.91;1715867;81;25598;-67
2021/03/16 01:47:46;;;;;;;77.37;49.20;;;;;;;1.37;77.91;99683.41;1701487;81;25866;-72
2021/03/16 01:50:20;;;;;;;86.80;53.85;;;;;;;1.46;77.69;99705.83;1685540;82;25793;-72
2021/03/16 01:52:49;;;;;;;86.00;52.05;;;;;;;1.40;77.78;99713.23;1645569;84;25405;-72
2021/03/16 01:55:17;;;;;;;84.03;53.48;;;;;;;1.40;77.78;99713.23;1664141;84;26548;-72
2021/03/16 01:57:45;;;;;;;88.50;53.60;;;;;;;1.37;78.09;99694.98;1660999;82;25790;-73
2021/03/16 02:00:40;;;;;;;87.57;54.03;;;;;;;1.37;78.09;99694.98;1677456;83;25918;-72
2021/03/16 02:03:26;;;;;;;97.02;55.70;;;;;;;1.38;77.77;99706.91;1664702;83;25873;-73
2021/03/16 02:06:18;;;;;;;86.57;51.40;;;;;;;1.22;77.67;99707.78;1645561;84;25980;-74
2021/03/16 02:09:11;;;;;;;84.60;52.10;;;;;;;1.03;77.99;99685.24;1648062;84;25726;-74
2021/03/16 02:12:07;;;;;;;85.22;51.65;;;;;;;1.10;78.14;99712.14;1647728;84;25759;-73
2021/03/16 02:15:17;;;;;;;86.63;53.28;;;;;;;1.10;78.32;99712.95;1663998;82;25992;-74
2021/03/16 02:18:10;;;;;;;86.10;53.08;;;;;;;1.10;78.38;99714.72;1737094;80;26423;-73
2021/03/16 02:21:15;;;;;;;83.17;53.52;;;;;;;1.11;78.56;99713.29;1729380;80;25379;-74
2021/03/16 02:24:11;;;;;;;84.15;55.98;;;;;;;1.16;78.59;99712.94;1701696;81;25788;-73
2021/03/16 02:27:13;;;;;;;93.25;54.48;;;;;;;1.16;78.72;99707.80;1703499;81;26609;-74
2021/03/16 02:30:03;;;;;;;89.25;56.35;;;;;;;1.24;78.39;99709.30;1717096;81;25961;-74
2021/03/16 02:32:48;;;;;;;87.30;52.00;;;;;;;1.24;78.39;99709.30;1693115;81;27604;-74
2021/03/16 02:35:34;;;;;;;82.60;51.80;;;;;;;1.28;78.48;99714.56;1675773;82;26188;-73
2021/03/16 02:38:23;;;;;;;83.00;48.70;;;;;;;1.34;78.38;99717.12;1641579;83;25879;-73
2021/03/16 02:41:10;;;;;;;83.50;50.85;;;;;;;1.33;78.14;99716.75;1680864;82;25904;-73
2021/03/16 02:43:55;;;;;;;86.25;55.28;;;;;;;1.24;77.96;99717.48;1665029;83;25728;-73
2021/03/16 02:46:47;;;;;;;86.17;53.80;;;;;;;1.19;78.00;99726.04;1674916;83;25744;-73
2021/03/16 02:49:36;;;;;;;86.25;56.10;;;;;;;1.09;77.94;99725.92;1676222;82;25731;-74
2021/03/16 02:52:22;;;;;;;85.92;55.00;;;;;;;1.00;78.23;99730.05;1679756;82;25761;-73
2021/03/16 02:55:08;;;;;;;88.25;55.00;;;;;;;0.98;78.49;99728.52;1677418;83;25943;-72
2021/03/16 02:57:54;;;;;;;84.50;52.65;;;;;;;0.97;78.62;99733.33;1660266;82;25841;-73
2021/03/16 03:00:40;;;;;;;93.40;55.40;;;;;;;0.95;78.56;99735.20;1670138;83;25709;-73
2021/03/16 03:03:24;;;;;;;92.27;54.42;;;;;;;0.82;78.67;99732.30;1682163;83;25950;-74
2021/03/16 03:06:15;;;;;;;91.32;56.92;;;;;;;0.82;78.67;99732.30;1676934;83;25808;-74
2021/03/16 03:09:02;;;;;;;90.87;56.55;;;;;;;0.81;78.84;99737.08;1676199;83;25840;-74
2021/03/16 03:11:47;;;;;;;90.87;57.95;;;;;;;0.85;79.11;99733.82;1679648;83;25775;-73
2021/03/16 03:14:33;;;;;;;87.17;54.80;;;;;;;0.88;79.27;99725.39;1680755;83;25680;-73
2021/03/16 03:17:18;;;;;;;93.35;59.48;;;;;;;1.01;79.35;99730.41;1680309;83;25701;-73
2021/03/16 03:20:08;;;;;;;100.15;60.38;;;;;;;1.07;79.19;99732.50;1684564;82;25963;-74
2021/03/16 03:23:10;;;;;;;102.25;61.10;;;;;;;1.07;79.00;99732.50;1672590;83;25706;-74
2021/03/16 03:26:05;;;;;;;102.35;61.68;;;;;;;1.05;78.99;99729.22;1678865;82;25789;-74
2021/03/16 03:28:49;;;;;;;98.15;60.92;;;;;;;1.06;79.13;99729.59;1675049;83;25768;-74
2021/03/16 03:31:35;;;;;;;96.65;56.30;;;;;;;1.09;79.12;99735.77;1679809;83;25882;-74
2021/03/16 03:34:22;;;;;;;93.25;58.98;;;;;;;1.10;78.95;99736.59;1673478;83;26553;-73
2021/03/16 03:37:09;;;;;;;96.22;57.43;;;;;;;1.02;79.00;99733.80;1696624;81;25769;-73
2021/03/16 03:39:55;;;;;;;126.40;78.72;;;;;;;1.01;79.01;99735.55;1707175;80;25713;-73
2021/03/16 03:42:40;;;;;;;138.60;91.60;;;;;;;1.00;79.12;99729.23;1731685;80;27634;-75
2021/03/16 03:45:27;;;;;;;115.72;73.10;;;;;;;1.00;79.32;99733.90;1727265;80;25393;-73
2021/03/16 03:48:14;;;;;;;122.17;79.58;;;;;;;1.05;79.10;99728.41;1734266;80;25764;-73
2021/03/16 03:51:00;;;;;;;121.87;79.80;;;;;;;1.05;79.10;99728.41;1738693;80;25813;-74
2021/03/16 03:53:44;;;;;;;130.60;81.00;;;;;;;0.97;78.96;99737.19;1703743;81;25563;-73
2021/03/16 03:56:32;;;;;;;108.37;69.40;;;;;;;0.85;78.88;99740.25;1716649;81;25911;-73
2021/03/16 03:59:17;;;;;;;119.42;73.05;;;;;;;0.78;79.09;99744.22;1720918;81;26611;-73
2021/03/16 04:02:03;;;;;;;114.88;70.22;;;;;;;0.79;79.49;99738.97;1743089;80;25794;-73
2021/03/16 04:04:48;;;;;;;114.45;68.10;;;;;;;0.84;79.42;99741.16;1744186;80;25508;-73
2021/03/16 04:07:34;;;;;;;109.78;67.58;;;;;;;0.89;79.32;99743.73;1728615;80;25824;-73
2021/03/16 04:10:20;;;;;;;106.45;66.55;;;;;;;0.91;79.21;99749.25;1717606;80;25816;-73
2021/03/16 04:13:06;;;;;;;110.45;67.32;;;;;;;0.91;79.02;99751.82;1726646;80;25788;-74
2021/03/16 04:15:50;;;;;;;108.07;65.15;;;;;;;0.94;78.98;99756.25;1701773;81;25419;-74
2021/03/16 04:18:35;;;;;;;105.50;65.87;;;;;;;0.93;78.82;99752.05;1694114;82;25963;-73
2021/03/16 04:21:20;;;;;;;97.40;61.75;;;;;;;0.99;78.96;99753.33;1697971;82;25718;-73
2021/03/16 04:24:06;;;;;;;103.00;63.28;;;;;;;1.03;78.80;99750.86;1703907;81;26515;-73
2021/03/16 04:26:50;;;;;;;105.10;63.20;;;;;;;1.02;78.59;99756.48;1718431;81;26451;-74
2021/03/16 04:29:35;;;;;;;100.35;64.70;;;;;;;0.96;78.36;99760.82;1718803;80;26082;-73
2021/03/16 04:32:20;;;;;;;107.52;64.82;;;;;;;0.88;78.31;99765.27;1719833;80;25812;-74
2021/03/16 04:35:07;;;;;;;113.62;67.35;;;;;;;0.78;78.22;99767.37;1711203;81;25879;-73
2021/03/16 04:37:52;;;;;;;106.10;63.87;;;;;;;0.72;78.48;99763.98;1736578;80;25837;-74
2021/03/16 04:40:36;;;;;;;98.62;62.58;;;;;;;0.76;78.70;99762.80;1711492;80;25873;-72
2021/03/16 04:43:21;;;;;;;94.83;59.45;;;;;;;0.83;78.72;99761.41;1705418;81;25863;-71
2021/03/16 04:46:06;;;;;;;103.60;63.50;;;;;;;0.80;78.39;99763.74;1707759;81;25890;-72
2021/03/16 04:48:52;;;;;;;99.83;63.55;;;;;;;0.68;78.09;99770.28;1693043;81;25298;-73
2021/03/16 04:51:36;;;;;;;102.05;64.07;;;;;;;0.68;78.09;99770.28;1716600;80;25957;-73
2021/03/16 04:54:21;;;;;;;100.70;61.80;;;;;;;0.74;78.48;99774.51;1707420;81;26464;-73
2021/03/16 04:57:06;;;;;;;90.60;57.90;;;;;;;0.81;78.49;99775.66;1720739;79;25839;-73
2021/03/16 04:59:51;;;;;;;98.27;59.88;;;;;;;0.81;78.28;99783.84;1659956;83;25880;-68
2021/03/16 05:02:36;;;;;;;100.25;62.98;;;;;;;0.77;78.07;99783.74;1673880;83;25815;-68
2021/03/16 05:05:21;;;;;;;109.05;67.50;;;;;;;0.73;78.04;99788.75;1695331;82;27660;-68
2021/03/16 05:08:05;;;;;;;109.80;67.10;;;;;;;0.63;78.04;99790.75;1679414;83;25377;-69
2021/03/16 05:10:50;;;;;;;100.53;62.78;;;;;;;0.56;78.18;99793.41;1711317;81;25293;-68
2021/03/16 05:13:34;;;;;;;104.47;63.95;;;;;;;0.50;78.33;99795.64;1693083;83;25884;-68
2021/03/16 05:16:21;;;;;;;105.63;62.38;;;;;;;0.48;78.57;99789.78;1697650;82;25601;-67
2021/03/16 05:19:06;;;;;;;106.78;60.75;;;;;;;0.49;78.75;99789.69;1701008;82;26624;-68
2021/03/16 05:21:50;;;;;;;106.47;64.90;;;;;;;0.48;78.85;99789.31;1679532;83;26175;-69
2021/03/16 05:24:35;;;;;;;101.70;64.40;;;;;;;0.58;79.08;99794.13;1677744;83;26428;-67
2021/03/16 05:27:20;;;;;;;98.07;61.80;;;;;;;0.72;79.14;99791.80;1666203;83;26024;-67
2021/03/16 05:30:07;;;;;;;98.30;61.25;;;;;;;0.77;78.85;99788.41;1700101;81;25704;-66
2021/03/16 05:32:59;;;;;;;95.75;60.17;;;;;;;0.79;78.75;99788.28;1679973;83;27566;-74
2021/03/16 05:35:45;;;;;;;98.20;59.63;;;;;;;0.78;78.65;99786.18;1680528;83;25867;-73
2021/03/16 05:38:30;;;;;;;96.53;60.38;;;;;;;0.77;78.76;99788.89;1685728;83;25892;-74
2021/03/16 05:41:16;;;;;;;96.37;57.98;;;;;;;0.79;78.87;99786.55;1698332;81;25733;-74
2021/03/16 05:44:01;;;;;;;94.32;58.30;;;;;;;0.80;78.98;99792.52;1706470;82;25677;-74
2021/03/16 05:46:47;;;;;;;86.32;55.63;;;;;;;0.85;79.27;99798.13;1727882;80;25796;-68
2021/03/16 05:49:34;;;;;;;92.80;60.45;;;;;;;0.90;79.25;99794.74;1726361;80;25327;-68
2021/03/16 05:52:20;;;;;;;119.62;73.25;;;;;;;0.95;79.24;99828.63;1711639;81;25786;-70
2021/03/16 05:55:07;;;;;;;120.90;73.22;;;;;;;0.71;78.87;99790.17;1735823;80;25869;-68
2021/03/16 05:57:51;;;;;;;118.00;70.22;;;;;;;0.70;79.48;99810.85;1723801;80;25344;-67
2021/03/16 06:00:36;;;;;;;105.58;63.80;;;;;;;0.79;80.28;99805.00;1720256;80;27584;-68
2021/03/16 06:03:21;;;;;;;107.20;66.30;;;;;;;0.90;80.49;99811.47;1735950;79;25530;-68
2021/03/16 06:06:08;;;;;;;101.05;62.30;;;;;;;1.03;80.78;99816.47;1740619;79;25929;-68
2021/03/16 06:08:53;;;;;;;109.50;62.35;;;;;;;1.16;80.99;99821.51;1723427;81;25913;-68
2021/03/16 06:11:50;;;;;;;92.17;57.93;;;;;;;1.26;80.97;99821.97;1737347;80;25985;-68
2021/03/16 06:14:36;;;;;;;97.62;57.67;;;;;;;1.39;81.22;99823.13;1721569;80;25749;-68
2021/03/16 06:17:21;;;;;;;93.07;54.70;;;;;;;1.58;81.50;99825.53;1729779;81;25614;-68
2021/03/16 06:20:08;;;;;;;92.55;55.50;;;;;;;1.74;81.89;99834.50;1738511;80;26533;-69
2021/03/16 06:23:08;;;;;;;80.70;52.15;;;;;;;1.85;82.00;99834.13;1734281;80;25910;-68
2021/03/16 06:25:52;;;;;;;88.65;54.88;;;;;;;1.95;82.19;99830.70;1693149;82;25437;-68
2021/03/16 06:28:37;;;;;;;90.45;55.63;;;;;;;2.12;82.35;99837.55;1685509;82;25949;-68
2021/03/16 06:31:24;;;;;;;88.12;54.40;;;;;;;2.13;82.67;99819.86;1667309;82;26191;-67
2021/03/16 06:34:25;;;;;;;84.72;51.83;;;;;;;2.35;82.70;99844.24;1688814;82;25690;-68
2021/03/16 06:37:10;;;;;;;;;;;;;;;2.45;82.82;99844.30;1691736;82;25822;-68
2021/03/16 06:39:57;;;;;;;72.82;44.90;;;;;;;2.52;82.83;99846.73;1684135;82;25800;-68
2021/03/16 06:42:41;;;;;;;73.75;45.05;;;;;;;2.59;83.18;99841.42;1682368;82;25757;-69
2021/03/16 06:45:32;;;;;;;64.95;41.55;;;;;;;2.67;83.22;99849.80;1668798;82;25705;-67
2021/03/16 06:48:19;;;;;;;69.35;42.48;;;;;;;2.73;83.37;99854.91;1676323;82;25857;-68
2021/03/16 06:51:11;;;;;;;69.50;43.40;;;;;;;2.80;83.56;99854.28;1681746;82;26415;-68
2021/03/16 06:54:11;;;;;;;67.67;38.20;;;;;;;2.86;83.45;99860.25;1692173;82;25817;-69
2021/03/16 06:57:02;;;;;;;64.20;40.67;;;;;;;2.98;83.50;99858.88;1675843;82;27536;-69
2021/03/16 06:59:47;;;;;;;64.95;41.42;;;;;;;3.10;83.36;99864.28;1687749;82;25869;-68
2021/03/16 07:02:32;;;;;;;58.55;35.73;;;;;;;3.09;83.24;99847.17;1715362;81;25898;-68
2021/03/16 07:05:29;;;;;;;52.33;35.13;;;;;;;3.32;83.36;99873.14;1720654;80;25915;-69
2021/03/16 07:08:14;;;;;;;51.23;32.17;;;;;;;3.46;83.12;99875.02;1710007;81;26442;-68
2021/03/16 07:11:02;;;;;;;54.20;33.55;;;;;;;3.58;83.17;99881.73;1714515;81;26423;-68
2021/03/16 07:13:48;;;;;;;54.85;35.00;;;;;;;3.62;82.94;99881.80;1707366;80;25741;-68
2021/03/16 07:16:35;;;;;;;47.73;32.80;;;;;;;3.70;82.73;99878.56;1703801;81;25346;-69
2021/03/16 07:19:23;;;;;;;47.00;30.90;;;;;;;3.81;82.60;99882.80;1700391;80;25403;-68
2021/03/16 07:22:10;;;;;;;44.20;27.73;;;;;;;3.87;82.45;99877.91;1673454;82;25743;-68
2021/03/16 07:24:56;;;;;;;44.10;27.52;;;;;;;3.94;82.26;99884.19;1709050;80;25715;-67
2021/03/16 07:27:41;;;;;;;49.35;31.30;;;;;;;3.98;82.15;99880.39;1746866;79;25323;-70
2021/03/16 07:30:28;;;;;;;43.23;28.17;;;;;;;4.03;82.01;99883.84;1713496;79;25773;-68
2021/03/16 07:33:15;;;;;;;44.27;28.98;;;;;;;4.12;81.80;99882.22;1722809;80;25979;-69
2021/03/16 07:36:00;;;;;;;46.60;29.92;;;;;;;4.13;81.65;99885.97;1741488;81;25238;-68
2021/03/16 07:38:46;;;;;;;44.50;29.63;;;;;;;4.16;81.47;99887.47;1731983;79;25689;-67
2021/03/16 07:41:32;;;;;;;54.50;31.48;;;;;;;4.18;81.34;99893.34;1732807;79;25425;-67
2021/03/16 07:44:19;;;;;;;38.23;27.52;;;;;;;4.20;81.34;99891.41;1743766;80;25849;-67
2021/03/16 07:47:03;;;;;;;42.10;29.82;;;;;;;4.25;81.33;99896.19;1739300;80;26564;-68
2021/03/16 07:49:48;;;;;;;41.88;28.15;;;;;;;4.33;81.48;99901.50;1733034;79;26442;-69
2021/03/16 07:52:24;;;;;;;43.40;27.87;;;;;;;4.48;81.45;99900.14;1718129;80;26982;-70
2021/03/16 07:55:09;;;;;;;38.90;26.55;;;;;;;4.57;80.84;99901.89;1740461;79;25400;-69
2021/03/16 07:58:06;;;;;;;45.30;29.37;;;;;;;4.56;80.34;99901.57;1742635;80;26015;-69
2021/03/16 08:00:52;;;;;;;42.65;29.65;;;;;;;4.62;80.60;99906.19;1744547;80;25844;-70
2021/03/16 08:03:37;;;;;;;44.90;27.45;;;;;;;4.73;80.39;99905.70;1750466;80;26440;-69
2021/03/16 08:06:24;;;;;;;42.00;27.62;;;;;;;4.78;80.16;99903.03;1735320;81;26188;-66
2021/03/16 08:09:22;;;;;;;44.25;29.80;;;;;;;4.84;79.99;99895.19;1745089;80;25711;-68
2021/03/16 08:12:27;;;;;;;45.65;28.30;;;;;;;4.84;79.68;99897.30;1736866;80;25886;-68
2021/03/16 08:15:15;;;;;;;44.00;30.82;;;;;;;4.83;79.79;99905.22;1735132;79;25389;-68
2021/03/16 08:18:00;;;;;;;44.80;30.23;;;;;;;4.88;79.98;99905.14;1732802;81;25697;-68
2021/03/16 08:20:47;;;;;;;51.20;33.13;;;;;;;4.98;80.04;99904.29;1713799;80;27596;-68
2021/03/16 08:23:32;;;;;;;47.48;32.98;;;;;;;5.05;79.75;99902.30;1730888;80;26206;-68
2021/03/16 08:26:17;;;;;;;53.52;34.80;;;;;;;5.08;79.59;99899.91;1737982;81;25732;-68
2021/03/16 08:29:02;;;;;;;55.98;32.80;;;;;;;5.10;79.34;99903.99;1720495;80;25801;-68
2021/03/16 08:31:47;;;;;;;55.67;34.45;;;;;;;5.20;79.56;99904.42;1733623;80;26011;-68
2021/03/16 08:34:31;;;;;;;52.62;34.78;;;;;;;5.29;79.44;99908.30;1725431;81;25911;-67
2021/03/16 08:37:36;;;;;;;49.45;33.25;;;;;;;5.40;79.50;99909.89;1731828;80;25882;-68
2021/03/16 08:40:24;;;;;;;52.85;33.38;;;;;;;5.51;79.35;99901.92;1731520;80;25728;-67
2021/03/16 08:43:10;;;;;;;53.30;35.80;;;;;;;5.56;79.04;99906.20;1720035;80;25968;-66
2021/03/16 08:45:56;;;;;;;50.80;32.28;;;;;;;5.62;79.30;99906.11;1732325;80;25735;-69
2021/03/16 08:48:43;;;;;;;42.98;29.32;;;;;;;5.75;78.97;99907.05;1690783;82;27678;-67
2021/03/16 08:51:30;;;;;;;40.23;27.45;;;;;;;5.77;78.31;99912.42;1720591;80;26381;-67
2021/03/16 08:54:25;;;;;;;37.65;25.75;;;;;;;5.85;78.46;99908.30;1715255;80;26690;-72
2021/03/16 08:57:10;;;;;;;35.43;24.85;;;;;;;5.94;77.68;99921.22;1712732;81;25847;-71
2021/03/16 08:59:57;;;;;;;36.08;26.12;;;;;;;6.03;77.66;99914.82;1712223;80;26694;-72
2021/03/16 09:02:41;;;;;;;41.18;29.00;;;;;;;6.08;77.31;99920.39;1725842;81;26626;-71
2021/03/16 09:05:26;;;;;;;43.78;30.02;;;;;;;6.14;77.48;99927.61;1725925;79;25705;-70
2021/03/16 09:08:11;;;;;;;51.37;34.38;;;;;;;6.15;77.08;99920.95;1723518;80;25903;-71
2021/03/16 09:10:56;;;;;;;43.52;29.67;;;;;;;6.21;77.10;99922.95;1721887;80;25961;-71
2021/03/16 09:13:41;;;;;;;38.05;25.77;;;;;;;6.30;76.96;99926.92;1730333;80;25806;-71
2021/03/16 09:16:26;;;;;;;32.42;24.00;;;;;;;6.34;75.40;99926.49;1722831;80;25817;-74
2021/03/16 09:19:15;;;;;;;35.73;25.17;;;;;;;6.34;75.47;99923.09;1680590;83;25972;-72
2021/03/16 09:22:02;;;;;;;40.15;28.27;;;;;;;6.35;75.80;99924.22;1676405;82;26407;-74
2021/03/16 09:24:49;;;;;;;32.25;21.02;;;;;;;6.46;75.35;99925.77;1697062;81;25904;-73
2021/03/16 09:30:19;;;;;;;34.43;25.25;;;;;;;6.67;73.87;99926.77;1717271;81;25925;-89
2021/03/16 09:33:06;;;;;;;35.58;24.43;;;;;;;6.79;74.34;99921.69;1725106;80;25571;-89
2021/03/16 09:36:02;;;;;;;38.85;26.85;;;;;;;6.96;74.46;99927.80;1722357;81;25255;-89
2021/03/16 09:38:29;;;;;;;41.70;26.20;;;;;;;7.11;74.65;99925.45;1698269;80;25654;-88
2021/03/16 09:41:09;;;;;;;42.38;29.70;;;;;;;7.29;74.00;99927.51;1701101;80;25780;-88
2021/03/16 09:43:39;;;;;;;40.90;26.57;;;;;;;7.40;73.15;99926.42;1702099;80;25596;-89
2021/03/16 09:46:13;;;;;;;38.75;25.95;;;;;;;7.46;73.03;99930.19;1704847;79;25552;-89
2021/03/16 09:48:47;;;;;;;37.42;26.80;;;;;;;7.51;72.82;99927.45;1678412;81;37917;-89
2021/03/16 09:51:22;;;;;;;41.90;26.75;;;;;;;7.55;73.04;99934.45;1718050;80;26266;-89
2021/03/16 09:53:55;;;;;;;38.73;25.30;;;;;;;7.52;72.24;99929.06;1710565;80;25738;-88
2021/03/16 09:56:33;;;;;;;37.88;25.12;;;;;;;7.47;71.66;99934.41;1709353;80;26374;-89
2021/03/16 09:59:04;;;;;;;37.40;25.50;;;;;;;7.41;70.21;99931.95;1687424;81;26075;-89
2021/03/16 10:01:34;;;;;;;37.67;25.08;;;;;;;7.32;71.03;99934.19;1707155;80;25565;-89
2021/03/16 10:04:02;;;;;;;44.08;26.87;;;;;;;7.27;71.61;99929.44;1696602;82;25397;-89
2021/03/16 10:06:38;;;;;;;41.35;29.37;;;;;;;7.27;70.85;99933.34;1695777;80;25498;-88
2021/03/16 10:09:19;;;;;;;37.70;24.07;;;;;;;7.28;71.54;99934.98;1693439;81;25845;-89
2021/03/16 10:11:46;;;;;;;40.63;25.12;;;;;;;7.25;71.26;99932.67;1683336;81;25784;-89
2021/03/16 10:14:14;;;;;;;39.63;25.82;;;;;;;7.25;71.66;99939.66;1663268;82;25759;-89
2021/03/16 10:16:41;;;;;;;33.20;23.25;;;;;;;7.23;71.74;99939.83;1681632;83;25345;-89
2021/03/16 10:19:07;;;;;;;35.17;23.70;;;;;;;7.24;70.89;99938.84;1661579;83;25535;-89
2021/03/16 10:21:36;;;;;;;42.23;26.52;;;;;;;7.22;71.08;99939.48;1699232;82;25580;-89
2021/03/16 10:24:05;;;;;;;40.33;26.97;;;;;;;7.22;71.02;99938.67;1707986;82;25367;-88
2021/03/16 10:26:31;;;;;;;38.45;25.27;;;;;;;7.21;70.79;99948.75;1693854;81;25563;-89
2021/03/16 10:29:09;;;;;;;37.10;25.90;;;;;;;7.24;70.77;99953.14;1670309;82;25881;-89
2021/03/16 10:31:36;;;;;;;35.08;25.45;;;;;;;7.24;70.32;99947.95;1692639;81;25485;-89
2021/03/16 10:34:02;;;;;;;41.80;27.50;;;;;;;7.22;70.67;99942.08;1722979;81;25761;-89
2021/03/16 10:36:34;;;;;;;36.48;23.07;;;;;;;7.26;70.53;99943.91;1677746;82;26302;-88
2021/03/16 10:38:57;;;;;;;33.60;24.72;;;;;;;7.26;70.21;99946.02;1713981;81;25790;-88
2021/03/16 10:41:23;;;;;;;38.63;24.23;;;;;;;7.25;70.21;99939.66;1689767;81;25365;-89
2021/03/16 10:43:50;;;;;;;35.40;23.83;;;;;;;7.27;70.02;99939.84;1689551;82;25487;-88
2021/03/16 10:46:16;;;;;;;37.38;24.43;;;;;;;7.34;70.23;99940.86;1701317;81;25793;-89
2021/03/16 10:48:42;;;;;;;31.77;21.33;;;;;;;7.44;70.23;99941.22;1714535;81;25327;-89
2021/03/16 10:51:09;;;;;;;33.55;20.97;;;;;;;7.50;67.21;99941.44;1708503;81;25322;-89
2021/03/16 10:53:35;;;;;;;33.88;21.77;;;;;;;7.63;68.86;99942.28;1717191;81;25721;-88
2021/03/16 10:56:07;;;;;;;28.77;19.85;;;;;;;7.72;67.72;99946.57;1717543;81;25567;-89
2021/03/16 10:58:33;;;;;;;30.05;20.17;;;;;;;7.81;67.94;99938.30;1720303;81;25674;-90
2021/03/16 11:01:00;;;;;;;25.50;19.07;;;;;;;7.91;65.91;99940.30;1671355;83;25952;-90
2021/03/16 11:03:27;;;;;;;30.43;21.80;;;;;;;7.98;65.81;99941.27;1692982;82;25512;-88
2021/03/16 11:05:53;;;;;;;26.20;18.50;;;;;;;8.02;66.91;99940.48;1701207;82;25730;-88
2021/03/16 11:08:19;;;;;;;26.50;16.27;;;;;;;8.13;66.79;99934.14;1695121;81;25363;-88
2021/03/16 11:10:46;;;;;;;26.45;15.78;;;;;;;8.21;66.18;99934.16;1698368;82;26612;-88
2021/03/16 11:13:13;;;;;;;22.48;15.53;;;;;;;8.32;65.33;99937.78;1683020;82;25329;-89
2021/03/16 11:15:39;;;;;;;19.65;11.57;;;;;;;8.39;64.83;99938.78;1662245;83;25360;-89
2021/03/16 11:18:06;;;;;;;21.68;14.35;;;;;;;8.44;63.61;99935.70;1671570;82;25445;-89
2021/03/16 11:20:32;;;;;;;18.32;12.18;;;;;;;8.44;63.81;99931.30;1685520;82;25830;-89
2021/03/16 11:22:58;;;;;;;15.83;9.38;;;;;;;8.48;61.15;99933.58;1709731;81;25633;-89
2021/03/16 11:25:25;;;;;;;14.30;9.73;;;;;;;8.48;62.20;99936.18;1693142;81;25738;-88
2021/03/16 11:27:52;;;;;;;19.75;13.72;;;;;;;8.48;62.49;99938.30;1687176;81;25867;-89
2021/03/16 11:30:19;;;;;;;20.55;13.00;;;;;;;8.60;63.12;99930.50;1692403;82;25880;-89
2021/03/16 11:32:45;;;;;;;25.62;14.90;;;;;;;8.70;59.59;99926.91;1676803;82;25285;-89
2021/03/16 11:35:30;;;;;;;19.80;12.23;;;;;;;8.75;61.66;99922.02;1668408;82;25765;-90
2021/03/16 11:38:16;;;;;;;16.45;11.90;;;;;;;8.87;60.24;99924.63;1681098;82;25977;-89
2021/03/16 11:41:01;;;;;;;23.15;11.10;;;;;;;8.88;59.00;99927.55;1667637;82;25216;-89
2021/03/16 11:43:46;;;;;;;16.02;11.53;;;;;;;8.84;58.87;99920.56;1680423;82;25190;-88
2021/03/16 11:46:31;;;;;;;19.17;12.33;;;;;;;8.78;59.04;99919.89;1674743;81;25708;-89
2021/03/16 11:49:16;;;;;;;16.40;12.47;;;;;;;8.76;59.22;99918.45;1679913;81;25661;-88
2021/03/16 11:52:00;;;;;;;19.20;11.75;;;;;;;8.74;59.44;99916.00;1706810;80;25123;-89
2021/03/16 11:54:45;;;;;;;17.05;12.00;;;;;;;8.75;59.13;99916.31;1716419;80;25079;-89
2021/03/16 11:57:29;;;;;;;20.12;15.48;;;;;;;8.80;59.28;99919.25;1706248;80;26486;-90
2021/03/16 12:00:15;;;;;;;23.60;16.35;;;;;;;8.91;59.47;99926.41;1716431;80;25241;-89
2021/03/16 12:03:00;;;;;;;22.90;14.15;;;;;;;8.91;59.96;99920.70;1687108;82;25596;-87
2021/03/16 12:05:45;;;;;;;22.15;13.95;;;;;;;8.96;59.03;99916.31;1686458;81;25716;-89
2021/03/16 12:08:31;;;;;;;19.48;13.60;;;;;;;9.06;60.06;99913.04;1699029;81;25878;-88
2021/03/16 12:11:15;;;;;;;17.75;13.58;;;;;;;9.19;58.94;99908.59;1680925;81;25378;-88
2021/03/16 12:14:01;;;;;;;20.88;15.05;;;;;;;9.26;59.43;99906.95;1690246;82;25356;-88
2021/03/16 12:16:46;;;;;;;20.50;13.65;;;;;;;9.33;59.52;99900.91;1680643;81;26352;-89
2021/03/16 12:19:30;;;;;;;18.62;12.40;;;;;;;9.43;58.91;99894.66;1692064;81;26027;-89
2021/03/16 12:22:15;;;;;;;15.80;9.88;;;;;;;9.49;57.96;99904.41;1684826;82;25384;-89
2021/03/16 12:24:59;;;;;;;15.83;9.75;;;;;;;9.61;58.04;99897.05;1675542;81;25395;-89
2021/03/16 12:27:45;;;;;;;15.75;9.78;;;;;;;9.67;56.28;99901.08;1699547;82;25791;-89
2021/03/16 12:30:29;;;;;;;15.83;10.63;;;;;;;9.71;57.35;99895.86;1681545;82;26302;-89